Accueil
METAR-TAF:

METAR-TAF

Aéroports :

Aéroport de Jersey

Jersey,

latitude: 49-13N, longitude: 002-12W, altitude: 84 m

Observation

Le bulletin a été fait il y a 36 minutes, à 01:50 UTC
Vent 14 kt de ouest/sud-ouest
Température 16°C
Humidité 94%
Pression 1023 hPa
Visibilité 10 km ou plus

METAR: EGJJ 190150Z AUTO 25014KT 9999 BKN009/// BKN010/// 16/15 Q1023

Heure: 03:26 (02:26 UTC)

Prévision

Le bulletin a été fait il y a 3 heures et 30 minutes, à 22:56 UTC
Prévision valable du 19 à 00 UTC au 19 à 09 UTC
Vent 10 kt de ouest
Visibilité 10 km ou plus
Quelques nuages à une hauteur de 1000 ft
Temporairement
du 19 à 01 UTC au 19 à 09 UTC
Nuages fragmentés à une hauteur de 1000 ft
Probabilité 30% :
Temporairement
du 19 à 03 UTC au 19 à 09 UTC
Nuages fragmentés à une hauteur de 700 ft

TAF: EGJJ 182256Z 1900/1909 26010KT 9999 FEW010 TEMPO 1901/1909 BKN010 PROB30 TEMPO 1903/1909 BKN007

Observations et prévisions météorologiques de plus de 4000 aéroports (messages METAR et TAF).

Les stations disponibles sont représentées par des disques jaunes et rouges sur la carte.

Passer la souris dessus pour voir le nom de la station.

Cliquer dessus pour voir les observations et prévisions météorologiques.

Pour changer de carte: cliquez sur les boutons verts avec une croix noire pour zoomer, sur le bouton vert avec un tiret pour effectuer un zoom arrière, ou sur les flèches vertes pour les cartes adjacentes.


METAR-TAF: